Time;durP1;ratioP1;P1;durP2;ratioP2;P2;SDS_P1;SDS_P2;PMS_P1;PMS_P2;Temp;Humidity;BMP_temperature;BMP_pressure;BME280_temperature;BME280_humidity;BME280_pressure;Samples;Min_cycle;Max_cycle;Signal;HPM_P1;HPM_P2
2022/06/05 00:01:29;;;;;;;11.40;5.82;;;;;;;20.87;46.96;102040.97;5009238;28;20030;-64
2022/06/05 00:04:18;;;;;;;13.38;5.97;;;;;;;20.64;48.09;102051.47;5009640;28;20044;-64
2022/06/05 00:07:04;;;;;;;9.45;5.55;;;;;;;20.62;47.96;102045.44;5009115;28;20038;-64
2022/06/05 00:09:36;;;;;;;10.05;5.57;;;;;;;20.45;48.21;102042.88;5008898;28;20046;-64
2022/06/05 00:12:09;;;;;;;8.93;5.82;;;;;;;20.48;48.29;102047.00;5008380;28;20117;-65
2022/06/05 00:14:39;;;;;;;11.10;6.22;;;;;;;20.61;47.78;102041.91;5008518;28;20486;-65
2022/06/05 00:17:15;;;;;;;14.32;6.32;;;;;;;21.02;47.23;102023.06;5008848;28;20448;-66
2022/06/05 00:19:45;;;;;;;11.45;6.78;;;;;;;21.06;46.62;102026.91;5009416;28;20200;-66
2022/06/05 00:22:10;;;;;;;9.77;6.53;;;;;;;20.88;46.96;102019.94;5009063;28;20394;-65
2022/06/05 00:24:36;;;;;;;13.32;8.23;;;;;;;20.47;48.26;102023.50;5008756;28;20042;-64
2022/06/05 00:27:27;;;;;;;9.57;5.80;;;;;;;20.66;47.80;102017.34;5008672;28;20033;-65
2022/06/05 00:30:11;;;;;;;10.70;6.10;;;;;;;21.11;46.81;102016.81;5007957;28;20049;-64
2022/06/05 00:32:45;;;;;;;14.50;6.97;;;;;;;21.25;46.11;102007.03;5008744;28;20053;-65
2022/06/05 00:35:17;;;;;;;10.35;6.80;;;;;;;21.06;46.93;102014.06;5008613;28;20037;-65
2022/06/05 00:37:55;;;;;;;9.57;6.22;;;;;;;20.92;47.46;102021.88;5009135;28;20041;-65
2022/06/05 00:40:47;;;;;;;11.35;6.43;;;;;;;20.91;46.46;102012.03;5008795;28;20048;-65
2022/06/05 00:43:17;;;;;;;10.00;7.22;;;;;;;20.87;46.99;101999.97;5008931;28;20060;-65
2022/06/05 00:45:44;;;;;;;11.38;7.35;;;;;;;20.91;46.95;102013.97;5009159;28;20053;-65
2022/06/05 00:48:10;;;;;;;11.13;6.88;;;;;;;20.95;46.54;102010.41;5008283;28;20140;-64
2022/06/05 00:50:37;;;;;;;11.10;7.00;;;;;;;20.75;47.72;102018.53;5008801;28;20041;-64
2022/06/05 00:53:05;;;;;;;15.55;7.88;;;;;;;20.68;47.34;102017.91;5008603;28;20069;-65
2022/06/05 00:55:39;;;;;;;12.68;7.72;;;;;;;20.43;48.07;102014.19;5008750;28;20030;-65
2022/06/05 00:58:05;;;;;;;10.20;6.80;;;;;;;19.64;50.44;102007.69;5008208;28;20119;-64
2022/06/05 01:00:37;;;;;;;15.90;7.85;;;;;;;20.34;48.70;102005.69;5008922;28;20046;-64
2022/06/05 01:03:06;;;;;;;10.90;8.15;;;;;;;20.48;48.47;102006.03;4989316;28;20735;-66
2022/06/05 01:05:31;;;;;;;10.98;7.40;;;;;;;19.94;49.55;102002.56;4989054;28;20145;-66
2022/06/05 01:07:57;;;;;;;14.55;7.30;;;;;;;20.47;48.27;101988.81;4989178;28;20030;-65
2022/06/05 01:10:33;;;;;;;10.68;8.18;;;;;;;19.97;49.49;101985.66;4989193;28;20143;-65
2022/06/05 01:13:10;;;;;;;13.02;8.13;;;;;;;20.12;49.60;101983.91;4989112;28;20043;-65
2022/06/05 01:16:03;;;;;;;10.93;7.50;;;;;;;20.26;48.73;101978.03;5008515;28;20049;-66
2022/06/05 01:18:40;;;;;;;12.25;7.50;;;;;;;20.47;48.35;101971.63;5008036;28;20064;-66
2022/06/05 01:21:43;;;;;;;13.77;7.88;;;;;;;20.13;49.38;101965.59;5008108;28;20026;-65
2022/06/05 01:24:30;;;;;;;14.32;8.25;;;;;;;20.25;49.00;101966.28;4976857;28;20051;-65
2022/06/05 01:27:02;;;;;;;13.48;7.20;;;;;;;20.36;48.85;101969.91;4966195;28;20047;-66
2022/06/05 01:29:45;;;;;;;12.25;7.25;;;;;;;20.30;49.28;101971.78;4966208;28;20034;-66
2022/06/05 01:32:19;;;;;;;14.55;7.72;;;;;;;20.34;48.88;101956.53;4948107;28;20054;-65
2022/06/05 01:34:53;;;;;;;16.30;8.07;;;;;;;20.42;48.82;101955.22;4951826;28;20047;-65
2022/06/05 01:37:39;;;;;;;13.60;8.30;;;;;;;20.61;48.32;101959.97;4962408;28;20142;-65
2022/06/05 01:40:22;;;;;;;11.00;7.70;;;;;;;20.50;48.59;101958.25;4969645;28;20051;-65
2022/06/05 01:42:52;;;;;;;19.35;9.85;;;;;;;20.52;48.23;101947.09;4970193;28;20043;-66
2022/06/05 01:45:23;;;;;;;10.38;8.27;;;;;;;20.57;47.73;101942.47;4969757;28;20491;-66
2022/06/05 01:47:54;;;;;;;16.23;9.55;;;;;;;20.10;49.33;101934.22;4961557;28;20036;-67
2022/06/05 01:50:42;;;;;;;14.90;8.82;;;;;;;20.79;47.20;101923.19;4969781;28;20534;-65
2022/06/05 01:53:32;;;;;;;12.45;7.45;;;;;;;20.27;49.52;101916.88;4969517;28;20054;-66
2022/06/05 01:56:04;;;;;;;18.85;9.55;;;;;;;20.49;48.25;101912.09;4970356;28;20058;-66
2022/06/05 01:58:39;;;;;;;14.10;9.18;;;;;;;19.81;49.96;101907.50;4970115;28;20058;-65
2022/06/05 02:01:11;;;;;;;15.45;10.00;;;;;;;20.37;48.86;101911.47;4998806;28;20193;-64
2022/06/05 02:03:51;;;;;;;20.90;9.57;;;;;;;20.26;48.84;101909.78;5011566;28;20124;-66
2022/06/05 02:06:49;;;;;;;15.82;10.63;;;;;;;20.13;49.51;101902.81;5011703;28;20049;-66
2022/06/05 02:09:23;;;;;;;15.18;9.43;;;;;;;19.80;49.90;101911.31;4911625;29;20896;-65
2022/06/05 02:11:49;;;;;;;14.93;10.20;;;;;;;20.05;49.69;101906.88;4911728;29;20036;-66
2022/06/05 02:14:15;;;;;;;14.43;9.30;;;;;;;19.78;50.70;101910.75;4912588;29;20052;-65
2022/06/05 02:16:42;;;;;;;16.17;10.45;;;;;;;20.12;49.95;101912.94;4912441;29;20140;-64
2022/06/05 02:19:12;;;;;;;12.57;9.38;;;;;;;20.17;49.91;101919.53;4911660;29;20140;-64
2022/06/05 02:21:38;;;;;;;16.90;9.60;;;;;;;20.57;48.45;101919.78;4912066;29;20066;-65
2022/06/05 02:24:06;;;;;;;17.30;10.02;;;;;;;20.05;50.27;101916.97;4912077;29;20051;-64
2022/06/05 02:26:31;;;;;;;19.10;10.70;;;;;;;20.53;49.19;101910.47;4911946;29;20393;-64
2022/06/05 02:29:08;;;;;;;17.48;10.73;;;;;;;20.68;48.33;101903.19;4912691;29;20063;-66
2022/06/05 02:31:39;;;;;;;13.90;10.20;;;;;;;20.67;48.42;101898.81;4919554;29;20043;-64
2022/06/05 02:34:19;;;;;;;19.50;10.48;;;;;;;20.60;48.61;101884.56;4930917;29;20062;-64
2022/06/05 02:37:03;;;;;;;17.60;10.38;;;;;;;20.23;49.66;101888.44;4917902;29;20048;-65
2022/06/05 02:39:47;;;;;;;16.77;10.10;;;;;;;20.30;49.08;101876.25;4911856;29;20051;-64
2022/06/05 02:42:30;;;;;;;13.98;9.68;;;;;;;20.64;48.29;101871.19;4911101;29;20088;-65
2022/06/05 02:45:01;;;;;;;14.65;9.45;;;;;;;20.75;48.44;101868.25;4927990;28;20073;-64
2022/06/05 02:47:53;;;;;;;13.70;9.40;;;;;;;20.51;48.75;101867.06;4990930;28;20073;-65
2022/06/05 02:50:32;;;;;;;17.58;10.30;;;;;;;19.98;50.34;101851.72;4991191;28;20176;-66
2022/06/05 02:53:07;;;;;;;15.45;10.93;;;;;;;20.24;49.79;101860.91;4991637;28;20866;-64
2022/06/05 02:55:33;;;;;;;14.85;10.52;;;;;;;20.32;49.71;101848.66;4991161;28;20138;-65
2022/06/05 02:57:58;;;;;;;16.02;11.27;;;;;;;20.37;49.73;101843.22;5008412;28;20041;-67
2022/06/05 03:00:27;;;;;;;17.17;11.00;;;;;;;20.32;49.88;101841.31;5010845;28;20030;-66
2022/06/05 03:05:38;;;;;;;16.20;10.25;;;;;;;20.59;49.02;101825.59;5010928;28;20092;-65
2022/06/05 03:08:05;;;;;;;22.20;11.48;;;;;;;20.00;50.15;101821.44;5010130;28;20030;-65
2022/06/05 03:10:30;;;;;;;20.05;11.52;;;;;;;19.95;50.93;101810.50;5010242;28;20528;-65
2022/06/05 03:12:56;;;;;;;18.77;11.52;;;;;;;20.09;50.56;101796.09;5010347;28;20049;-65
2022/06/05 03:15:22;;;;;;;17.15;12.07;;;;;;;19.99;50.50;101798.78;5009722;28;20402;-65
2022/06/05 03:17:48;;;;;;;20.92;12.35;;;;;;;20.54;49.37;101795.50;5009561;28;20057;-65
2022/06/05 03:20:15;;;;;;;19.98;11.93;;;;;;;20.42;49.38;101789.44;5009810;28;20064;-66
2022/06/05 03:22:40;;;;;;;18.13;11.85;;;;;;;20.66;48.85;101790.63;5010453;28;20041;-65
2022/06/05 03:25:07;;;;;;;21.73;12.90;;;;;;;20.56;49.16;101785.13;5009985;28;20038;-65
2022/06/05 03:27:32;;;;;;;19.70;13.45;;;;;;;20.40;49.24;101786.16;5017673;28;20037;-65
2022/06/05 03:29:59;;;;;;;17.35;12.88;;;;;;;20.42;49.80;101780.47;5029539;28;20091;-64
2022/06/05 03:32:26;;;;;;;15.10;11.85;;;;;;;20.45;49.88;101783.47;5014168;28;20026;-65
2022/06/05 03:34:51;;;;;;;19.58;11.85;;;;;;;20.52;49.24;101777.75;5010424;28;20092;-66
2022/06/05 03:37:16;;;;;;;17.73;12.52;;;;;;;20.51;49.53;101774.19;5009381;28;20038;-65
2022/06/05 03:39:42;;;;;;;17.27;12.60;;;;;;;20.18;50.45;101774.59;5009866;28;20045;-66
2022/06/05 03:42:07;;;;;;;16.75;12.60;;;;;;;20.29;49.96;101775.47;5009503;28;20045;-65
2022/06/05 03:44:38;;;;;;;15.13;11.45;;;;;;;20.21;50.03;101778.72;5009317;28;20034;-65
2022/06/05 03:47:04;;;;;;;16.33;11.90;;;;;;;20.63;48.71;101776.69;5009749;28;20026;-65
2022/06/05 03:49:29;;;;;;;21.48;12.35;;;;;;;20.29;50.02;101770.84;5009950;28;20603;-66
2022/06/05 03:51:54;;;;;;;19.17;12.32;;;;;;;19.87;50.73;101775.53;5009276;28;20046;-64
2022/06/05 03:54:20;;;;;;;16.00;12.98;;;;;;;20.14;50.67;101770.75;5009762;28;20042;-65
2022/06/05 03:56:45;;;;;;;18.77;12.45;;;;;;;20.39;49.56;101767.31;5008738;28;20042;-66
2022/06/05 03:59:11;;;;;;;16.60;11.75;;;;;;;20.31;49.96;101765.09;5009058;28;20030;-66
2022/06/05 04:01:36;;;;;;;16.65;12.38;;;;;;;20.46;49.83;101767.91;5008085;28;20050;-66
2022/06/05 04:04:03;;;;;;;18.48;12.75;;;;;;;20.58;48.66;101758.38;5008966;28;20056;-65
2022/06/05 04:06:30;;;;;;;23.73;12.18;;;;;;;20.54;49.50;101756.47;5008819;28;20057;-65
2022/06/05 04:08:57;;;;;;;19.83;12.85;;;;;;;20.13;50.43;101752.72;5009395;28;20084;-65
2022/06/05 04:11:23;;;;;;;20.23;12.38;;;;;;;19.65;52.25;101753.00;5008776;28;20116;-64
2022/06/05 04:13:49;;;;;;;18.65;13.38;;;;;;;19.84;51.77;101746.03;5009154;28;20033;-65
2022/06/05 04:16:19;;;;;;;17.17;12.65;;;;;;;20.31;50.36;101735.91;5008801;28;20038;-64
2022/06/05 04:18:45;;;;;;;20.42;13.13;;;;;;;20.39;50.16;101743.56;5008834;28;20049;-66
2022/06/05 04:21:13;;;;;;;16.38;12.70;;;;;;;20.65;49.11;101741.75;5008028;28;20128;-65
2022/06/05 04:23:38;;;;;;;25.75;12.75;;;;;;;20.60;49.55;101741.75;5009301;28;20034;-66
2022/06/05 04:26:09;;;;;;;18.65;12.02;;;;;;;20.41;49.95;101738.66;5007277;28;20037;-65
2022/06/05 04:28:35;;;;;;;19.45;12.13;;;;;;;19.91;51.44;101741.16;5009099;28;20493;-65
2022/06/05 04:31:01;;;;;;;15.73;11.45;;;;;;;20.49;49.84;101745.50;5008583;28;20623;-64
2022/06/05 04:33:26;;;;;;;19.77;13.32;;;;;;;20.22;50.53;101747.59;5008029;28;20045;-65
2022/06/05 04:35:52;;;;;;;19.73;12.88;;;;;;;20.63;49.50;101746.66;5008659;28;20069;-65
2022/06/05 04:38:17;;;;;;;16.83;12.27;;;;;;;20.72;49.23;101742.28;5009263;28;20179;-66
2022/06/05 04:40:43;;;;;;;22.60;13.23;;;;;;;20.58;49.66;101746.66;5009209;28;20029;-66
2022/06/05 04:43:08;;;;;;;20.63;12.75;;;;;;;20.89;48.53;101738.22;5008345;28;20045;-65
2022/06/05 04:45:35;;;;;;;19.70;13.00;;;;;;;21.05;48.13;101730.88;5007669;28;20041;-65
2022/06/05 04:48:01;;;;;;;18.35;12.25;;;;;;;20.83;48.53;101733.03;5008630;28;20088;-65
2022/06/05 04:50:27;;;;;;;17.20;12.60;;;;;;;20.93;48.53;101730.31;5008647;28;20099;-65
2022/06/05 04:52:52;;;;;;;15.43;12.40;;;;;;;21.06;48.35;101728.97;5009035;28;20037;-64
2022/06/05 04:55:18;;;;;;;16.00;12.38;;;;;;;20.76;49.14;101732.47;5008318;28;20041;-65
2022/06/05 04:57:44;;;;;;;18.83;11.73;;;;;;;21.40;47.89;101735.53;5008776;28;20049;-65
2022/06/05 05:00:11;;;;;;;16.85;12.70;;;;;;;21.15;48.51;101732.81;5008587;28;20133;-65
2022/06/05 05:02:37;;;;;;;21.77;13.23;;;;;;;21.26;47.71;101729.81;5007853;28;20045;-66
2022/06/05 05:05:03;;;;;;;18.27;13.00;;;;;;;21.22;48.14;101734.19;5008622;28;20400;-64
2022/06/05 05:07:28;;;;;;;17.20;12.38;;;;;;;21.17;47.49;101723.22;5009149;28;20033;-67
2022/06/05 05:09:54;;;;;;;17.75;13.57;;;;;;;21.42;47.31;101719.66;5011385;28;20038;-67
2022/06/05 05:12:19;;;;;;;20.60;13.20;;;;;;;21.58;47.04;101715.81;5012529;28;20041;-65
2022/06/05 05:14:45;;;;;;;19.42;12.70;;;;;;;21.40;47.93;101716.38;5012172;28;20037;-65
2022/06/05 05:17:10;;;;;;;16.48;12.40;;;;;;;21.43;46.99;101719.38;5011485;28;20042;-66
2022/06/05 05:19:36;;;;;;;15.73;12.82;;;;;;;21.42;47.50;101709.56;5013098;28;20393;-65
2022/06/05 05:22:01;;;;;;;20.25;12.85;;;;;;;21.67;46.92;101706.75;5012070;28;20038;-65
2022/06/05 05:24:26;;;;;;;16.67;12.23;;;;;;;21.77;46.44;101700.44;5012200;28;20046;-65
2022/06/05 05:26:52;;;;;;;22.70;12.65;;;;;;;22.14;45.71;101717.28;5012338;28;20567;-65
2022/06/05 05:29:17;;;;;;;20.92;12.57;;;;;;;22.36;45.43;101717.72;5010021;28;20046;-66
2022/06/05 05:31:45;;;;;;;15.80;12.20;;;;;;;22.50;45.20;101723.41;5012800;28;20532;-65
2022/06/05 05:34:13;;;;;;;18.70;12.15;;;;;;;22.58;44.48;101720.09;5011958;28;20057;-65
2022/06/05 05:36:39;;;;;;;18.50;12.55;;;;;;;22.64;44.71;101719.78;5011830;28;20068;-65
2022/06/05 05:42:08;;;;;;;18.15;11.68;;;;;;;22.96;44.17;101721.22;5012083;28;20036;-64
2022/06/05 05:44:46;;;;;;;16.20;13.00;;;;;;;22.60;44.49;101732.41;5011406;28;20477;-66
2022/06/05 05:47:14;;;;;;;16.02;12.18;;;;;;;22.75;44.47;101742.47;5011395;28;20042;-65
2022/06/05 05:49:41;;;;;;;17.55;12.63;;;;;;;22.90;44.01;101739.59;5012074;28;20072;-66
2022/06/05 05:52:07;;;;;;;19.90;11.50;;;;;;;22.92;43.89;101737.41;4994476;28;20494;-66
2022/06/05 05:54:35;;;;;;;18.73;12.07;;;;;;;23.05;43.18;101733.19;5011429;28;20050;-66
2022/06/05 05:57:02;;;;;;;16.25;11.77;;;;;;;23.04;43.87;101728.81;5011285;28;20050;-66
2022/06/05 05:59:27;;;;;;;18.30;12.10;;;;;;;23.18;43.59;101735.28;5011686;28;20129;-67
2022/06/05 06:01:53;;;;;;;16.10;11.07;;;;;;;23.11;43.88;101730.13;5011643;28;20038;-65
2022/06/05 06:04:19;;;;;;;20.63;12.25;;;;;;;23.13;44.27;101730.66;5011359;28;20030;-66
2022/06/05 06:06:47;;;;;;;14.88;11.40;;;;;;;23.36;43.53;101729.13;5011809;28;20120;-65
2022/06/05 06:09:13;;;;;;;18.65;12.68;;;;;;;23.55;43.10;101714.38;5011272;28;20045;-67
2022/06/05 06:11:38;;;;;;;16.92;12.27;;;;;;;23.25;43.93;101716.56;5011395;28;20041;-65
2022/06/05 06:14:04;;;;;;;16.50;11.25;;;;;;;23.60;42.97;101716.25;4993683;28;20077;-66
2022/06/05 06:16:30;;;;;;;17.27;12.50;;;;;;;23.80;42.33;101712.47;5011346;28;20026;-66
2022/06/05 06:18:56;;;;;;;18.20;12.98;;;;;;;23.47;42.96;101717.75;5011266;28;20053;-66
2022/06/05 06:21:22;;;;;;;15.35;11.05;;;;;;;23.47;43.38;101709.50;5010206;28;20667;-67
2022/06/05 06:23:48;;;;;;;16.80;11.43;;;;;;;23.81;42.75;101712.16;5010788;28;20042;-66
2022/06/05 06:26:14;;;;;;;14.82;11.65;;;;;;;23.68;43.02;101707.38;5011262;28;20022;-65
2022/06/05 06:28:39;;;;;;;17.70;10.95;;;;;;;23.94;42.78;101703.22;5011499;28;20660;-66
2022/06/05 06:31:09;;;;;;;16.08;11.15;;;;;;;23.96;42.30;101708.44;5010148;28;20084;-65
2022/06/05 06:33:35;;;;;;;15.82;11.15;;;;;;;24.19;41.82;101705.69;5009301;28;20042;-66
2022/06/05 06:36:03;;;;;;;17.27;10.57;;;;;;;23.79;43.07;101708.06;5010119;28;20026;-65
2022/06/05 06:38:28;;;;;;;15.80;11.05;;;;;;;24.10;42.43;101701.97;5009896;28;20084;-66
2022/06/05 06:41:02;;;;;;;13.75;10.55;;;;;;;24.07;41.75;101707.22;5010476;28;20050;-66
2022/06/05 06:43:28;;;;;;;14.88;10.30;;;;;;;23.99;42.53;101705.91;5010271;28;20038;-66
2022/06/05 06:45:54;;;;;;;15.57;10.27;;;;;;;23.94;42.48;101703.22;5009245;28;20034;-66
2022/06/05 06:48:20;;;;;;;15.25;10.95;;;;;;;24.07;42.08;101704.47;5009556;28;20058;-67
2022/06/05 06:50:45;;;;;;;16.13;10.30;;;;;;;24.09;41.98;101700.34;5010186;28;20041;-66
2022/06/05 06:53:11;;;;;;;13.93;9.88;;;;;;;24.32;41.72;101699.47;5009490;28;20514;-65
2022/06/05 06:55:37;;;;;;;15.63;10.55;;;;;;;24.53;41.19;101693.69;5009649;28;20021;-66
2022/06/05 06:58:03;;;;;;;17.13;9.90;;;;;;;24.76;40.89;101692.81;5010182;28;20037;-66
2022/06/05 07:00:28;;;;;;;11.45;10.00;;;;;;;24.78;41.02;101693.31;5009327;28;20363;-67
2022/06/05 07:02:54;;;;;;;11.95;9.50;;;;;;;24.14;42.18;101696.69;5009120;28;20087;-67
2022/06/05 07:05:19;;;;;;;22.02;10.13;;;;;;;24.82;40.43;101695.19;5009343;28;20021;-66
2022/06/05 07:07:45;;;;;;;16.58;9.15;;;;;;;25.07;39.81;101694.75;5009605;28;20033;-67
2022/06/05 07:10:10;;;;;;;14.80;10.43;;;;;;;24.79;40.63;101687.53;5009686;28;20081;-66
2022/06/05 07:12:36;;;;;;;15.65;9.73;;;;;;;25.07;40.09;101693.94;5008331;28;20441;-66
2022/06/05 07:15:04;;;;;;;16.15;9.73;;;;;;;24.72;40.61;101684.34;5008047;28;20390;-66
2022/06/05 07:17:30;;;;;;;14.68;9.82;;;;;;;24.85;40.63;101680.81;5008802;28;20034;-66
2022/06/05 07:19:55;;;;;;;14.70;10.00;;;;;;;25.12;40.37;101691.09;5007815;28;20509;-68
2022/06/05 07:22:20;;;;;;;14.23;10.90;;;;;;;25.16;39.64;101679.19;5007804;28;20076;-67
2022/06/05 07:24:46;;;;;;;19.33;9.45;;;;;;;25.31;39.62;101677.28;5008416;28;20371;-66
2022/06/05 07:27:11;;;;;;;14.98;9.45;;;;;;;25.48;39.35;101672.03;5007822;28;21548;-66
2022/06/05 07:29:37;;;;;;;13.02;10.10;;;;;;;25.77;38.73;101676.13;5007799;28;20125;-67
2022/06/05 07:32:02;;;;;;;11.82;8.98;;;;;;;25.66;39.06;101666.44;5006883;28;20017;-67
2022/06/05 07:34:28;;;;;;;13.63;10.00;;;;;;;25.23;39.79;101665.03;5008035;28;20359;-68
2022/06/05 07:36:53;;;;;;;11.40;9.23;;;;;;;25.39;39.51;101655.41;5008451;28;20049;-67
2022/06/05 07:39:18;;;;;;;12.07;8.73;;;;;;;25.93;38.72;101651.84;5008123;28;20042;-66
2022/06/05 07:41:44;;;;;;;9.98;8.77;;;;;;;25.66;39.08;101654.59;5010185;28;20045;-67
2022/06/05 07:44:09;;;;;;;12.65;9.25;;;;;;;25.68;39.17;101657.88;5021979;28;20547;-66
2022/06/05 07:46:36;;;;;;;13.65;8.43;;;;;;;25.91;38.51;101648.56;5021647;28;20025;-66
2022/06/05 07:49:02;;;;;;;13.38;9.02;;;;;;;25.80;38.89;101630.63;5020514;28;20497;-66
2022/06/05 07:54:34;;;;;;;12.68;8.48;;;;;;;25.74;39.13;101620.84;5006868;28;20077;-68
2022/06/05 07:57:06;;;;;;;12.73;8.38;;;;;;;26.24;38.62;101611.47;4999510;28;20042;-67
2022/06/05 07:59:35;;;;;;;11.57;8.75;;;;;;;26.24;38.26;101602.44;5005398;28;20049;-65
2022/06/05 08:02:04;;;;;;;12.73;8.82;;;;;;;25.70;39.37;101601.38;5002439;28;20667;-65
2022/06/05 08:04:30;;;;;;;13.63;9.88;;;;;;;26.02;39.08;101592.94;5001080;28;20037;-67
2022/06/05 08:06:57;;;;;;;12.52;8.77;;;;;;;26.68;37.66;101585.88;5014348;28;20423;-70
2022/06/05 08:09:23;;;;;;;14.68;9.35;;;;;;;26.62;38.09;101579.69;4999255;28;20032;-68
2022/06/05 08:11:49;;;;;;;12.73;9.18;;;;;;;26.54;38.46;101580.44;5013162;28;20038;-67
2022/06/05 08:14:15;;;;;;;13.43;8.85;;;;;;;26.82;37.54;101575.63;4996002;28;20093;-68
2022/06/05 08:16:43;;;;;;;13.00;8.80;;;;;;;26.40;37.84;101560.38;4990451;28;20385;-66
2022/06/05 08:19:14;;;;;;;12.30;9.50;;;;;;;26.46;38.25;101561.88;5008378;28;20038;-66
2022/06/05 08:21:40;;;;;;;9.85;8.50;;;;;;;26.73;37.36;101559.00;5007991;28;20080;-66
2022/06/05 08:24:07;;;;;;;10.48;8.82;;;;;;;27.23;36.68;101547.72;5007181;28;20133;-67
2022/06/05 08:26:33;;;;;;;14.65;9.05;;;;;;;26.96;37.60;101551.53;5005654;28;20101;-67
2022/06/05 08:28:59;;;;;;;14.55;8.48;;;;;;;27.39;37.12;101533.22;5008250;28;20060;-67
2022/06/05 08:31:24;;;;;;;10.68;8.35;;;;;;;27.26;36.92;101533.28;5007875;28;20030;-65
2022/06/05 08:33:49;;;;;;;12.90;8.23;;;;;;;26.79;38.03;101529.38;5007960;28;20700;-67
2022/06/05 08:36:15;;;;;;;10.27;7.55;;;;;;;27.43;36.08;101528.66;5007530;28;20609;-67
2022/06/05 08:41:55;;;;;;;11.93;8.45;;;;;;;27.89;35.69;101514.28;5007171;28;20056;-69
2022/06/05 08:44:47;;;;;;;11.43;8.43;;;;;;;28.23;35.41;101507.94;5006441;28;20101;-67
2022/06/05 08:47:21;;;;;;;9.13;7.80;;;;;;;27.84;36.03;101508.91;4938973;29;20047;-67
2022/06/05 08:50:12;;;;;;;9.63;8.15;;;;;;;28.15;35.37;101511.50;4936832;29;20048;-68
2022/06/05 08:53:09;;;;;;;12.13;7.68;;;;;;;28.43;35.03;101496.19;4934555;29;20063;-67
2022/06/05 08:55:41;;;;;;;8.77;7.22;;;;;;;28.67;35.04;101498.44;4881092;29;20101;-66
2022/06/05 08:58:24;;;;;;;15.18;7.80;;;;;;;28.53;35.30;101490.31;4881475;29;20048;-66
2022/06/05 09:00:55;;;;;;;10.10;7.63;;;;;;;28.82;34.69;101486.81;4879666;29;20060;-66
2022/06/05 09:03:26;;;;;;;10.15;7.05;;;;;;;27.91;35.63;101483.56;4874508;29;20049;-67
2022/06/05 09:06:17;;;;;;;10.05;6.90;;;;;;;27.91;35.55;101478.81;4871491;29;20167;-67
2022/06/05 09:08:45;;;;;;;8.52;6.78;;;;;;;29.01;34.21;101478.94;4873078;29;20561;-67
2022/06/05 09:11:20;;;;;;;10.30;7.18;;;;;;;28.45;35.12;101480.06;4872304;29;20041;-66
2022/06/05 09:14:03;;;;;;;10.93;6.80;;;;;;;28.38;34.89;101468.72;4876930;29;20036;-66
2022/06/05 09:16:33;;;;;;;10.50;6.80;;;;;;;29.31;33.70;101463.94;4877315;29;20045;-64
2022/06/05 09:18:59;;;;;;;10.82;6.82;;;;;;;29.36;33.00;101461.81;4876275;29;20052;-67
2022/06/05 09:21:30;;;;;;;6.88;5.65;;;;;;;29.14;33.86;101453.00;4877564;29;20624;-67
2022/06/05 09:24:08;;;;;;;7.63;5.22;;;;;;;29.49;32.53;101451.63;4882554;29;20284;-67
2022/06/05 09:26:43;;;;;;;9.25;6.32;;;;;;;29.03;33.66;101440.66;4918010;29;20040;-67
2022/06/05 09:29:34;;;;;;;8.80;5.72;;;;;;;29.43;33.21;101450.19;4913014;29;20044;-67
2022/06/05 09:32:14;;;;;;;5.70;5.10;;;;;;;27.54;35.95;101440.78;4986915;28;20038;-67
2022/06/05 09:34:52;;;;;;;;;;;;;;;28.18;35.64;101448.13;5005947;28;20034;-66
2022/06/05 09:37:27;;;;;;;8.52;5.88;;;;;;;29.12;33.86;101433.09;5004759;28;19968;-67
2022/06/05 09:40:18;;;;;;;8.10;5.15;;;;;;;28.79;34.14;101454.28;5002894;28;20117;-64
2022/06/05 09:43:03;;;;;;;10.68;6.65;;;;;;;29.46;33.31;101460.59;4912381;29;20043;-66
2022/06/05 09:45:40;;;;;;;7.85;4.93;;;;;;;30.45;31.99;101456.00;4914062;29;20464;-67
2022/06/05 09:48:15;;;;;;;6.03;5.00;;;;;;;29.90;32.60;101456.34;4917875;29;20123;-68
2022/06/05 09:50:41;;;;;;;6.45;5.15;;;;;;;29.64;33.18;101445.44;4915273;29;20054;-68
2022/06/05 09:53:15;;;;;;;8.98;5.05;;;;;;;29.63;33.29;101452.16;4914881;29;20121;-67
2022/06/05 09:56:09;;;;;;;6.75;5.00;;;;;;;30.28;31.44;101443.94;4915358;29;20028;-68
2022/06/05 09:58:51;;;;;;;7.05;4.63;;;;;;;30.25;32.69;101443.78;4910065;29;20508;-68
2022/06/05 10:01:29;;;;;;;5.78;4.88;;;;;;;30.75;31.59;101440.75;4920575;29;20048;-67
2022/06/05 10:03:57;;;;;;;7.55;5.10;;;;;;;31.60;30.63;101442.34;4920686;29;20560;-66
2022/06/05 10:06:25;;;;;;;6.90;4.82;;;;;;;31.43;31.02;101441.81;4919723;29;20139;-68
2022/06/05 10:08:57;;;;;;;8.73;5.63;;;;;;;31.31;30.18;101433.47;4917023;29;20044;-70
2022/06/05 10:11:51;;;;;;;4.68;3.95;;;;;;;31.80;30.02;101433.00;4920534;29;20086;-67
2022/06/05 10:14:34;;;;;;;6.95;4.72;;;;;;;30.84;31.18;101447.06;4910620;29;20044;-68
2022/06/05 10:17:30;;;;;;;7.25;4.65;;;;;;;31.49;30.89;101446.75;4922778;29;20039;-69
2022/06/05 10:20:04;;;;;;;6.38;5.25;;;;;;;30.76;31.43;101445.97;4969871;28;20049;-69
2022/06/05 10:22:43;;;;;;;7.32;4.72;;;;;;;30.88;31.61;101434.09;5010844;28;20537;-69
2022/06/05 10:25:39;;;;;;;7.05;4.18;;;;;;;30.91;31.56;101442.53;5007673;28;20041;-67
2022/06/05 10:28:15;;;;;;;5.32;4.57;;;;;;;30.60;30.86;101433.13;5010228;28;20498;-68
2022/06/05 10:30:59;;;;;;;6.32;4.13;;;;;;;30.35;30.97;101431.47;5008748;28;20087;-68
2022/06/05 10:33:53;;;;;;;6.65;4.10;;;;;;;30.09;31.09;101426.97;5009546;28;20029;-68
2022/06/05 10:36:46;;;;;;;8.65;3.92;;;;;;;29.92;31.64;101418.84;5000763;28;20061;-70
2022/06/05 10:39:18;;;;;;;7.47;3.80;;;;;;;30.04;31.20;101418.06;5009810;28;20049;-68
2022/06/05 10:42:02;;;;;;;6.53;4.20;;;;;;;30.36;30.82;101414.47;5010377;28;20438;-67
2022/06/05 10:44:37;;;;;;;4.53;3.50;;;;;;;30.06;31.45;101404.66;5006543;28;20061;-68
2022/06/05 10:47:07;;;;;;;7.35;4.63;;;;;;;29.49;32.59;101405.34;5011769;28;20035;-69
2022/06/05 10:49:42;;;;;;;5.65;4.30;;;;;;;30.70;30.66;101396.59;5013483;28;20125;-68
2022/06/05 10:52:17;;;;;;;4.90;3.88;;;;;;;31.08;30.34;101400.63;5012556;28;20137;-69
2022/06/05 10:54:55;;;;;;;4.63;4.10;;;;;;;30.36;31.36;101397.03;5008585;28;20054;-69
2022/06/05 10:57:27;;;;;;;4.30;3.72;;;;;;;31.14;30.07;101390.91;5008105;28;20060;-70
2022/06/05 10:59:57;;;;;;;6.90;3.72;;;;;;;31.68;29.71;101387.78;5007038;28;20512;-74
2022/06/05 11:02:46;;;;;;;7.80;4.15;;;;;;;31.76;29.41;101387.59;4999605;28;20072;-67
2022/06/05 11:05:41;;;;;;;5.20;4.03;;;;;;;31.99;29.46;101385.09;5006238;28;20716;-69
2022/06/05 11:08:43;;;;;;;4.82;3.92;;;;;;;30.99;30.72;101383.31;5007182;28;20045;-70
2022/06/05 11:14:07;;;;;;;10.50;3.72;;;;;;;31.50;29.88;101390.03;5008901;28;20120;-68
2022/06/05 11:16:51;;;;;;;6.38;3.67;;;;;;;30.39;31.47;101388.81;4986739;28;20196;-69
2022/06/05 11:19:32;;;;;;;8.30;4.28;;;;;;;31.46;30.28;101391.09;5003434;28;20096;-66
2022/06/05 11:22:02;;;;;;;5.35;4.28;;;;;;;31.17;30.88;101392.19;5004014;28;20034;-69
2022/06/05 11:24:39;;;;;;;6.63;4.32;;;;;;;31.01;30.80;101388.50;5004531;28;20069;-68
2022/06/05 11:27:13;;;;;;;7.35;3.85;;;;;;;31.05;30.78;101386.66;5003963;28;20034;-68
2022/06/05 11:30:03;;;;;;;5.50;3.67;;;;;;;30.88;30.85;101378.59;5004416;28;20037;-71
2022/06/05 11:32:40;;;;;;;;;;;;;;;30.12;32.12;101381.94;4987034;28;20117;-70
2022/06/05 11:35:17;;;;;;;6.95;4.53;;;;;;;30.23;31.78;101383.09;5004077;28;20680;-69
2022/06/05 11:38:18;;;;;;;5.90;3.95;;;;;;;30.90;30.87;101381.81;5005570;28;20056;-71
2022/06/05 11:40:58;;;;;;;4.85;4.18;;;;;;;31.11;30.75;101374.16;5007286;28;20136;-68
2022/06/05 11:43:34;;;;;;;5.38;3.60;;;;;;;30.89;31.17;101369.91;5014620;28;20739;-68
2022/06/05 11:46:09;;;;;;;7.85;3.53;;;;;;;31.24;30.89;101361.84;5012798;28;20486;-69
2022/06/05 11:48:54;;;;;;;9.23;3.88;;;;;;;30.73;31.72;101360.63;5008450;28;20104;-70
2022/06/05 11:51:31;;;;;;;5.93;4.05;;;;;;;30.88;32.01;101359.16;5009358;28;20061;-70
2022/06/05 11:54:13;;;;;;;6.75;3.83;;;;;;;30.73;32.12;101362.59;5009355;28;20052;-69